Startpagina
METAR-TAF:

METAR-TAF

Vliegvelden :

Bermuda, Bermuda

L.F. Wade International Airport

breedte: 32-22N, lengte: 064-41W, hoogte: 6 m

Actueel weer

Dit bericht is 31 minuten geleden gemaakt, om 17:55 UTC
Wind 8 kt uit het noordwesten
Temperatuur 22°C
Vochtigheid 69%
Druk 1030 hPa
Zicht 10 km of meer
Verspreide wolken op 2500 ft
Gebroken wolken op 3300 ft
buien in de omgeving

METAR: TXKF 231755Z 31008KT 9999 VCSH SCT025 BKN033 22/16 Q1030

Tijdstip: 14:26 (18:26 UTC)

Verwachting

Dit bericht is 54 minuten geleden gemaakt, om 17:32 UTC
Verwachting geldig van 23 om 18 UTC tot 24 om 18 UTC
Wind 7 kt uit het noordnoordwesten
Zicht 10 km of meer
Gebroken wolken op 3500 ft

TAF: TXKF 231732Z 2318/2418 33007KT 9999 BKN035

Waarnemingen en weersverwachtingen van meer dan 4000 vliegvelden (METAR en TAF).

De beschikbare stations zijn de gele en rode punten op de kaart.

Ga met uw muis naar het station om de naam te zien.

Klik dan om waarnemingen en weersverwachtingen te zien.

kaart wijzigen: klik op de groene knoppen met een zwart kruis om in te zoomen, op de groene knop met een streepje om uit te zoomen of op de groene pijlen voor aangrenzende kaarten.


METAR-TAF: